Time;durP1;ratioP1;P1;durP2;ratioP2;P2;SDS_P1;SDS_P2;PMS_P1;PMS_P2;Temp;Humidity;BMP_temperature;BMP_pressure;BME280_temperature;BME280_humidity;BME280_pressure;Samples;Min_cycle;Max_cycle;Signal;HPM_P1;HPM_P2
2022/01/15 00:00:36;;;;;;;;;;;1.70;99.90;;;;;;4938613;29;20375;-79
2022/01/15 00:03:06;;;;;;;;;;;1.50;99.90;;;;;;4955886;29;19910;-79
2022/01/15 00:05:32;;;;;;;;;;;1.50;99.90;;;;;;4954497;29;19910;-80
2022/01/15 00:07:58;;;;;;;;;;;1.60;99.90;;;;;;4955779;29;20429;-80
2022/01/15 00:10:28;;;;;;;;;;;1.60;99.90;;;;;;4955383;28;19921;-79
2022/01/15 00:12:54;;;;;;;;;;;1.60;99.90;;;;;;4955740;29;20402;-79
2022/01/15 00:15:30;;;;;;;;;;;1.50;99.90;;;;;;4955754;29;19915;-80
2022/01/15 00:20:23;;;;;;;;;;;1.50;99.90;;;;;;4955941;29;19933;-79
2022/01/15 00:22:49;;;;;;;;;;;1.50;99.90;;;;;;4954331;29;19918;-80
2022/01/15 00:25:15;;;;;;;;;;;1.40;99.90;;;;;;4955569;29;19917;-80
2022/01/15 00:27:41;;;;;;;;;;;1.50;99.90;;;;;;4955641;29;19911;-80
2022/01/15 00:30:07;;;;;;;;;;;1.50;99.90;;;;;;4955400;29;19926;-79
2022/01/15 00:32:33;;;;;;;;;;;1.50;99.90;;;;;;4954260;29;20434;-79
2022/01/15 00:35:00;;;;;;;;;;;1.40;99.90;;;;;;4955945;29;19915;-80
2022/01/15 00:37:26;;;;;;;;;;;1.50;99.90;;;;;;4955447;29;19918;-80
2022/01/15 00:39:52;;;;;;;;;;;1.40;99.90;;;;;;4955482;29;19918;-80
2022/01/15 00:42:18;;;;;;;;;;;1.40;99.90;;;;;;4955471;29;20327;-79
2022/01/15 00:44:49;;;;;;;;;;;1.30;99.90;;;;;;4955376;29;19910;-80
2022/01/15 00:47:14;;;;;;;;;;;1.30;99.90;;;;;;4937940;29;19911;-79
2022/01/15 00:49:40;;;;;;;;;;;1.20;99.90;;;;;;4955321;29;19914;-79
2022/01/15 00:52:05;;;;;;;;;;;1.20;99.90;;;;;;4955233;29;19910;-80
2022/01/15 00:54:31;;;;;;;;;;;1.20;99.90;;;;;;4953815;29;20372;-80
2022/01/15 00:56:56;;;;;;;;;;;1.10;99.90;;;;;;4938054;29;19922;-79
2022/01/15 00:59:22;;;;;;;;;;;1.20;99.90;;;;;;4955291;29;20282;-80
2022/01/15 01:01:48;;;;;;;;;;;1.30;99.90;;;;;;4954010;29;19949;-79
2022/01/15 01:04:13;;;;;;;;;;;1.20;99.90;;;;;;4955333;29;19910;-80
2022/01/15 01:06:39;;;;;;;;;;;1.20;99.90;;;;;;4955242;29;20289;-80
2022/01/15 01:09:04;;;;;;;;;;;1.30;99.90;;;;;;4955332;29;19914;-79
2022/01/15 01:11:52;;;;;;;;;;;1.20;99.90;;;;;;4955440;29;20312;-80
2022/01/15 01:25:20;;;;;;;;;;;1.20;99.90;;;;;;4939030;29;20358;-79
2022/01/15 01:27:50;;;;;;;;;;;1.20;99.90;;;;;;4958738;29;20368;-80
2022/01/15 01:30:28;;;;;;;;;;;1.10;99.90;;;;;;4958512;29;19914;-80
2022/01/15 01:35:43;;;;;;;;;;;1.10;99.90;;;;;;4958659;29;20022;-79
2022/01/15 01:40:43;;;;;;;;;;;1.20;99.90;;;;;;4958688;29;20394;-79
2022/01/15 01:45:35;;;;;;;;;;;1.30;99.90;;;;;;4958806;29;20403;-79
2022/01/15 01:48:00;;;;;;;;;;;1.40;99.90;;;;;;4958555;29;19918;-80
2022/01/15 01:50:27;;;;;;;;;;;1.40;99.90;;;;;;4958371;29;20008;-80
2022/01/15 01:52:57;;;;;;;;;;;1.40;99.90;;;;;;4940856;29;19918;-80
2022/01/15 01:55:24;;;;;;;;;;;1.40;99.90;;;;;;4940501;29;19923;-79
2022/01/15 01:57:50;;;;;;;;;;;1.60;99.90;;;;;;4958140;29;19937;-80
2022/01/15 02:00:18;;;;;;;;;;;1.40;99.90;;;;;;4958402;29;19954;-79
2022/01/15 02:02:44;;;;;;;;;;;1.60;99.90;;;;;;4958082;29;19911;-79
2022/01/15 02:05:10;;;;;;;;;;;1.80;99.90;;;;;;4940726;29;20358;-80
2022/01/15 02:07:36;;;;;;;;;;;1.80;99.90;;;;;;4957928;29;19914;-80
2022/01/15 02:10:03;;;;;;;;;;;1.60;99.90;;;;;;4957989;29;20263;-79
2022/01/15 02:12:29;;;;;;;;;;;1.50;99.90;;;;;;4957911;29;19910;-79
2022/01/15 02:14:54;;;;;;;;;;;1.70;99.90;;;;;;4957790;29;19911;-79
2022/01/15 02:17:21;;;;;;;;;;;1.90;99.90;;;;;;4958250;29;19911;-80
2022/01/15 02:25:12;;;;;;;;;;;2.00;99.90;;;;;;4957600;29;19965;-80
2022/01/15 02:27:37;;;;;;;;;;;2.10;99.90;;;;;;4958102;29;19921;-79
2022/01/15 02:30:04;;;;;;;;;;;2.10;99.90;;;;;;4957496;29;20311;-80
2022/01/15 02:32:34;;;;;;;;;;;2.00;99.90;;;;;;4957457;28;19910;-80
2022/01/15 02:35:01;;;;;;;;;;;2.10;99.90;;;;;;4956946;29;19911;-80
2022/01/15 02:37:28;;;;;;;;;;;2.40;99.90;;;;;;4956133;29;19911;-80
2022/01/15 02:39:54;;;;;;;;;;;2.60;99.90;;;;;;4956134;29;20458;-80
2022/01/15 02:42:20;;;;;;;;;;;2.60;99.90;;;;;;4957352;29;20402;-80
2022/01/15 02:44:46;;;;;;;;;;;2.80;99.90;;;;;;4940350;29;19911;-80
2022/01/15 02:49:56;;;;;;;;;;;2.70;99.90;;;;;;4956868;29;19937;-80
2022/01/15 02:52:21;;;;;;;;;;;2.60;99.90;;;;;;4957104;29;20382;-80
2022/01/15 02:54:47;;;;;;;;;;;2.70;99.90;;;;;;4955677;29;20009;-80
2022/01/15 02:57:12;;;;;;;;;;;2.60;99.90;;;;;;4957009;29;20385;-80
2022/01/15 02:59:38;;;;;;;;;;;2.60;99.90;;;;;;4957280;29;19910;-80
2022/01/15 03:02:04;;;;;;;;;;;2.60;99.90;;;;;;4939709;29;19910;-80
2022/01/15 03:04:29;;;;;;;;;;;2.60;99.90;;;;;;4956921;29;20331;-80
2022/01/15 03:06:55;;;;;;;;;;;2.60;99.90;;;;;;4939674;29;19910;-80
2022/01/15 03:09:21;;;;;;;;;;;2.70;99.90;;;;;;4956769;29;19946;-80
2022/01/15 03:11:46;;;;;;;;;;;2.70;99.90;;;;;;4956772;29;19910;-80
2022/01/15 03:14:13;;;;;;;;;;;2.70;99.90;;;;;;4956787;29;19911;-80
2022/01/15 03:16:39;;;;;;;;;;;2.80;99.90;;;;;;4957057;29;19911;-80
2022/01/15 03:19:05;;;;;;;;;;;2.70;99.90;;;;;;4939965;29;19917;-80
2022/01/15 03:21:30;;;;;;;;;;;2.80;99.90;;;;;;4955299;29;20371;-79
2022/01/15 03:23:56;;;;;;;;;;;2.70;99.90;;;;;;4955249;29;19915;-80
2022/01/15 03:26:21;;;;;;;;;;;2.80;99.90;;;;;;4956455;29;19918;-80
2022/01/15 03:28:47;;;;;;;;;;;2.80;99.90;;;;;;4956386;29;20064;-80
2022/01/15 03:31:12;;;;;;;;;;;2.80;99.90;;;;;;4956581;29;19910;-80
2022/01/15 03:33:38;;;;;;;;;;;2.90;99.90;;;;;;4956429;29;19919;-80
2022/01/15 03:36:04;;;;;;;;;;;2.90;99.90;;;;;;4956528;29;19947;-80
2022/01/15 03:38:29;;;;;;;;;;;2.90;99.90;;;;;;4939072;29;20386;-80
2022/01/15 03:40:55;;;;;;;;;;;3.00;99.90;;;;;;4956250;29;20382;-80
2022/01/15 03:43:21;;;;;;;;;;;3.20;99.90;;;;;;4956605;29;19914;-80
2022/01/15 03:45:47;;;;;;;;;;;3.20;99.90;;;;;;4938014;29;19915;-80
2022/01/15 03:48:12;;;;;;;;;;;3.10;99.90;;;;;;4956230;29;19934;-80
2022/01/15 03:50:38;;;;;;;;;;;3.00;99.90;;;;;;4956137;29;20018;-80
2022/01/15 03:53:04;;;;;;;;;;;3.10;99.90;;;;;;4955963;29;19910;-80
2022/01/15 03:55:29;;;;;;;;;;;3.00;99.90;;;;;;4955709;29;19922;-80
2022/01/15 03:57:55;;;;;;;;;;;2.70;99.90;;;;;;4955999;29;20463;-80
2022/01/15 04:00:24;;;;;;;;;;;2.80;99.90;;;;;;4956037;29;19910;-80
2022/01/15 04:02:49;;;;;;;;;;;2.80;99.90;;;;;;4955909;29;19911;-80
2022/01/15 04:05:15;;;;;;;;;;;2.80;99.90;;;;;;4955948;29;19910;-79
2022/01/15 04:07:41;;;;;;;;;;;2.80;99.90;;;;;;4955895;29;19910;-80
2022/01/15 04:10:08;;;;;;;;;;;2.80;99.90;;;;;;4955823;29;19914;-80
2022/01/15 04:12:33;;;;;;;;;;;2.60;99.90;;;;;;4955798;29;19997;-80
2022/01/15 04:14:59;;;;;;;;;;;2.50;99.90;;;;;;4955735;29;19945;-79
2022/01/15 04:17:25;;;;;;;;;;;2.70;99.90;;;;;;4956409;29;19928;-80
2022/01/15 04:19:51;;;;;;;;;;;2.60;99.90;;;;;;4955762;29;19910;-80
2022/01/15 04:22:17;;;;;;;;;;;2.40;99.90;;;;;;4955625;29;19911;-80
2022/01/15 04:24:42;;;;;;;;;;;2.30;99.90;;;;;;4955661;29;19953;-80
2022/01/15 04:27:08;;;;;;;;;;;2.20;99.90;;;;;;4955730;29;20404;-80
2022/01/15 04:29:34;;;;;;;;;;;2.00;99.90;;;;;;4955527;29;20402;-80
2022/01/15 04:32:00;;;;;;;;;;;2.20;99.90;;;;;;4938224;29;19910;-79
2022/01/15 04:34:30;;;;;;;;;;;2.20;99.90;;;;;;4955479;29;20290;-79
2022/01/15 04:37:02;;;;;;;;;;;2.30;99.90;;;;;;4955663;29;19998;-79
2022/01/15 04:39:27;;;;;;;;;;;2.50;99.90;;;;;;4955785;29;19974;-79
2022/01/15 04:41:53;;;;;;;;;;;2.50;99.90;;;;;;4955576;29;20331;-80
2022/01/15 04:44:18;;;;;;;;;;;2.30;99.90;;;;;;4954163;29;19957;-80
2022/01/15 04:46:44;;;;;;;;;;;2.40;99.90;;;;;;4955412;29;19918;-80
2022/01/15 04:49:09;;;;;;;;;;;2.30;99.90;;;;;;4938129;29;20005;-80
2022/01/15 04:51:35;;;;;;;;;;;2.30;99.90;;;;;;4955336;29;20364;-79
2022/01/15 04:54:01;;;;;;;;;;;2.40;99.90;;;;;;4955118;29;19919;-80
2022/01/15 04:56:27;;;;;;;;;;;2.40;99.90;;;;;;4956067;28;19938;-80
2022/01/15 04:58:52;;;;;;;;;;;2.30;99.90;;;;;;4959234;29;19910;-80
2022/01/15 05:01:18;;;;;;;;;;;2.30;99.90;;;;;;4959158;29;19910;-79
2022/01/15 05:03:44;;;;;;;;;;;2.30;99.90;;;;;;4959383;29;20333;-80
2022/01/15 05:06:09;;;;;;;;;;;2.40;99.90;;;;;;4959084;29;20340;-79
2022/01/15 05:08:35;;;;;;;;;;;2.40;99.90;;;;;;4959020;29;19934;-79
2022/01/15 05:11:10;;;;;;;;;;;2.30;99.90;;;;;;4958906;29;20009;-79
2022/01/15 05:13:37;;;;;;;;;;;2.40;99.90;;;;;;4959126;29;20323;-79
2022/01/15 05:16:02;;;;;;;;;;;2.40;99.90;;;;;;4958943;29;19917;-80
2022/01/15 05:18:28;;;;;;;;;;;2.40;99.90;;;;;;4959331;29;19911;-79
2022/01/15 05:20:54;;;;;;;;;;;2.40;99.90;;;;;;4959167;29;19915;-79
2022/01/15 05:23:19;;;;;;;;;;;2.30;99.90;;;;;;4958727;29;19942;-79
2022/01/15 05:25:45;;;;;;;;;;;2.30;99.90;;;;;;4958824;29;19979;-79
2022/01/15 05:28:11;;;;;;;;;;;2.40;99.90;;;;;;4957408;29;20427;-80
2022/01/15 05:30:36;;;;;;;;;;;2.40;99.90;;;;;;4958546;29;19946;-79
2022/01/15 05:33:02;;;;;;;;;;;2.30;99.90;;;;;;4958596;29;19910;-80
2022/01/15 05:35:28;;;;;;;;;;;2.40;99.90;;;;;;4958570;29;19915;-79
2022/01/15 05:37:57;;;;;;;;;;;2.30;99.90;;;;;;4958550;29;19910;-79
2022/01/15 05:40:23;;;;;;;;;;;2.30;99.90;;;;;;4958310;29;19915;-79
2022/01/15 05:42:49;;;;;;;;;;;2.30;99.90;;;;;;4958638;29;20001;-79
2022/01/15 05:45:15;;;;;;;;;;;2.20;99.90;;;;;;4958380;29;20001;-80
2022/01/15 05:47:40;;;;;;;;;;;2.10;99.90;;;;;;4958451;29;20368;-80
2022/01/15 05:50:06;;;;;;;;;;;2.00;99.90;;;;;;4958225;29;20005;-79
2022/01/15 05:52:32;;;;;;;;;;;2.10;99.90;;;;;;4958116;29;19916;-79
2022/01/15 05:54:58;;;;;;;;;;;2.10;99.90;;;;;;4958086;29;19922;-79
2022/01/15 05:57:23;;;;;;;;;;;2.20;99.90;;;;;;4958336;29;20487;-80
2022/01/15 05:59:51;;;;;;;;;;;2.20;99.90;;;;;;4958127;29;19910;-80
2022/01/15 06:02:20;;;;;;;;;;;2.20;99.90;;;;;;4941211;29;20343;-79
2022/01/15 06:04:46;;;;;;;;;;;2.20;99.90;;;;;;4958064;29;19914;-79
2022/01/15 06:07:12;;;;;;;;;;;2.10;99.90;;;;;;4958046;29;19961;-80
2022/01/15 06:09:37;;;;;;;;;;;2.10;99.90;;;;;;4939565;29;19968;-80
2022/01/15 06:12:03;;;;;;;;;;;2.20;99.90;;;;;;4957951;29;20398;-79
2022/01/15 06:14:30;;;;;;;;;;;2.30;99.90;;;;;;4957852;29;20010;-79
2022/01/15 06:16:56;;;;;;;;;;;2.40;99.90;;;;;;4958314;29;20275;-79
2022/01/15 06:19:22;;;;;;;;;;;2.40;99.90;;;;;;4957886;29;19910;-80
2022/01/15 06:21:47;;;;;;;;;;;2.40;99.90;;;;;;4957844;29;19915;-80
2022/01/15 06:24:13;;;;;;;;;;;2.30;99.90;;;;;;4957960;29;19980;-80
2022/01/15 06:26:38;;;;;;;;;;;2.50;99.90;;;;;;4957749;29;20022;-80
2022/01/15 06:29:04;;;;;;;;;;;2.50;99.90;;;;;;4957482;29;19911;-79
2022/01/15 06:31:31;;;;;;;;;;;2.50;99.90;;;;;;4940317;29;19910;-80
2022/01/15 06:34:00;;;;;;;;;;;2.40;99.90;;;;;;4956313;29;19911;-79
2022/01/15 06:36:25;;;;;;;;;;;2.30;99.90;;;;;;4957482;29;20329;-80
2022/01/15 06:38:51;;;;;;;;;;;2.30;99.90;;;;;;4957449;29;19997;-80
2022/01/15 06:41:17;;;;;;;;;;;2.30;99.90;;;;;;4957575;29;19914;-80
2022/01/15 06:43:43;;;;;;;;;;;2.40;99.90;;;;;;4957347;29;19917;-80
2022/01/15 06:46:08;;;;;;;;;;;2.30;99.90;;;;;;4957283;29;19917;-80
2022/01/15 06:48:34;;;;;;;;;;;2.20;99.90;;;;;;4957251;29;19915;-80
2022/01/15 06:50:59;;;;;;;;;;;2.20;99.90;;;;;;4939937;29;19920;-80
2022/01/15 06:53:25;;;;;;;;;;;2.20;99.90;;;;;;4957206;29;19917;-80
2022/01/15 06:55:52;;;;;;;;;;;2.00;99.90;;;;;;4939735;29;20309;-79
2022/01/15 06:58:18;;;;;;;;;;;2.00;99.90;;;;;;4957098;29;19915;-79
2022/01/15 07:00:44;;;;;;;;;;;2.20;99.90;;;;;;4957232;29;20382;-79
2022/01/15 07:03:10;;;;;;;;;;;2.20;99.90;;;;;;4957099;29;19911;-79
2022/01/15 07:05:35;;;;;;;;;;;2.10;99.90;;;;;;4956975;29;20418;-79
2022/01/15 07:08:02;;;;;;;;;;;2.10;99.90;;;;;;4956948;29;19910;-79
2022/01/15 07:10:27;;;;;;;;;;;2.00;99.90;;;;;;4956747;29;19919;-79
2022/01/15 07:12:53;;;;;;;;;;;2.00;99.90;;;;;;4956771;29;19911;-79
2022/01/15 07:15:19;;;;;;;;;;;2.00;99.90;;;;;;4955943;29;19910;-80
2022/01/15 07:17:46;;;;;;;;;;;2.10;99.90;;;;;;4955451;29;20030;-79
2022/01/15 07:20:12;;;;;;;;;;;2.40;99.90;;;;;;4955165;28;19942;-80
2022/01/15 07:22:38;;;;;;;;;;;2.40;99.90;;;;;;4956589;29;19922;-79
2022/01/15 07:25:04;;;;;;;;;;;2.50;99.90;;;;;;4956630;29;19911;-79
2022/01/15 07:27:30;;;;;;;;;;;2.40;99.90;;;;;;4956557;29;19962;-79
2022/01/15 07:29:56;;;;;;;;;;;2.40;99.90;;;;;;4956429;29;19919;-80
2022/01/15 07:32:21;;;;;;;;;;;2.30;99.90;;;;;;4956451;29;19910;-80
2022/01/15 07:34:47;;;;;;;;;;;2.20;99.90;;;;;;4956623;29;19952;-80
2022/01/15 07:37:13;;;;;;;;;;;2.30;99.90;;;;;;4939464;29;20009;-79
2022/01/15 07:39:39;;;;;;;;;;;2.20;99.90;;;;;;4956276;29;19960;-80
2022/01/15 07:42:05;;;;;;;;;;;2.30;99.90;;;;;;4956256;29;19910;-80
2022/01/15 07:44:31;;;;;;;;;;;2.30;99.90;;;;;;4956193;29;20405;-79
2022/01/15 07:46:56;;;;;;;;;;;2.30;99.90;;;;;;4956093;29;19910;-79
2022/01/15 07:49:22;;;;;;;;;;;2.40;99.90;;;;;;4956077;29;19938;-80
2022/01/15 07:51:48;;;;;;;;;;;2.40;99.90;;;;;;4938751;29;19921;-79
2022/01/15 07:54:13;;;;;;;;;;;2.40;99.90;;;;;;4955888;29;19929;-80
2022/01/15 07:56:39;;;;;;;;;;;2.20;99.90;;;;;;4956332;29;19914;-80
2022/01/15 07:59:04;;;;;;;;;;;2.30;99.90;;;;;;4956015;29;20279;-79
2022/01/15 08:01:30;;;;;;;;;;;2.30;99.90;;;;;;4955963;29;19910;-79
2022/01/15 08:03:55;;;;;;;;;;;2.40;99.90;;;;;;4956129;29;19910;-79
2022/01/15 08:06:21;;;;;;;;;;;2.40;99.90;;;;;;4955999;29;19910;-79
2022/01/15 08:08:47;;;;;;;;;;;2.30;99.90;;;;;;4955891;29;20343;-80
2022/01/15 08:11:12;;;;;;;;;;;2.40;99.90;;;;;;4955692;29;19953;-79
2022/01/15 08:13:38;;;;;;;;;;;2.40;99.90;;;;;;4956213;29;19915;-80
2022/01/15 08:16:04;;;;;;;;;;;2.40;99.90;;;;;;4956307;29;20005;-80
2022/01/15 08:18:31;;;;;;;;;;;2.50;99.90;;;;;;4955726;29;20401;-80
2022/01/15 08:20:57;;;;;;;;;;;2.60;99.90;;;;;;4955671;29;20307;-79
2022/01/15 08:23:23;;;;;;;;;;;2.60;99.90;;;;;;4955744;29;20050;-80
2022/01/15 08:25:48;;;;;;;;;;;2.50;99.90;;;;;;4955625;29;19911;-79
2022/01/15 08:28:14;;;;;;;;;;;2.50;99.90;;;;;;4938309;29;19993;-80
2022/01/15 08:30:40;;;;;;;;;;;2.60;99.90;;;;;;4955105;29;19914;-80
2022/01/15 08:33:05;;;;;;;;;;;2.70;99.90;;;;;;4955103;29;19911;-80
2022/01/15 08:35:32;;;;;;;;;;;2.70;99.90;;;;;;4955378;29;19965;-79
2022/01/15 08:38:01;;;;;;;;;;;2.60;99.90;;;;;;4955779;29;20298;-80
2022/01/15 08:40:28;;;;;;;;;;;2.60;99.90;;;;;;4955549;29;19911;-79
2022/01/15 08:42:53;;;;;;;;;;;2.60;99.90;;;;;;4955538;29;20394;-80
2022/01/15 08:45:19;;;;;;;;;;;2.70;99.90;;;;;;4956028;29;19910;-80
2022/01/15 08:47:45;;;;;;;;;;;2.80;99.90;;;;;;4938179;29;19958;-80
2022/01/15 08:50:12;;;;;;;;;;;2.70;99.90;;;;;;4955570;29;19961;-79
2022/01/15 08:52:39;;;;;;;;;;;2.50;99.90;;;;;;4955327;29;20374;-80
2022/01/15 08:55:05;;;;;;;;;;;2.60;99.90;;;;;;4955284;29;19922;-80
2022/01/15 08:57:31;;;;;;;;;;;2.70;99.90;;;;;;4955207;29;19969;-79
2022/01/15 08:59:57;;;;;;;;;;;2.60;99.90;;;;;;4955348;29;19954;-80
2022/01/15 09:02:23;;;;;;;;;;;2.40;99.90;;;;;;4955621;29;20438;-79
2022/01/15 09:04:48;;;;;;;;;;;2.50;99.90;;;;;;4938029;29;19918;-80
2022/01/15 09:07:14;;;;;;;;;;;2.60;99.90;;;;;;4955498;29;19911;-80
2022/01/15 09:09:40;;;;;;;;;;;2.50;99.90;;;;;;4955108;29;19915;-80
2022/01/15 09:12:06;;;;;;;;;;;2.40;99.90;;;;;;4955384;29;19946;-79
2022/01/15 09:14:31;;;;;;;;;;;2.60;99.90;;;;;;4955644;29;19911;-80
2022/01/15 09:16:57;;;;;;;;;;;2.90;99.90;;;;;;4955153;29;19921;-80
2022/01/15 09:19:23;;;;;;;;;;;2.60;99.90;;;;;;4955154;29;19911;-80
2022/01/15 09:21:48;;;;;;;;;;;2.70;99.90;;;;;;4955138;29;19942;-80
2022/01/15 09:24:14;;;;;;;;;;;2.80;99.90;;;;;;4937900;29;20352;-80
2022/01/15 09:30:12;;;;;;;;;;;2.80;99.90;;;;;;4955274;29;19916;-80
2022/01/15 09:32:12;;;;;;;;;;;3.30;99.90;;;;;;4954915;29;19917;-80
2022/01/15 09:34:38;;;;;;;;;;;2.70;99.90;;;;;;4955265;29;19915;-80
2022/01/15 09:37:06;;;;;;;;;;;2.70;99.90;;;;;;4955085;29;19917;-80
2022/01/15 09:39:32;;;;;;;;;;;2.90;99.90;;;;;;4954975;29;19914;-80
2022/01/15 09:41:58;;;;;;;;;;;2.80;99.90;;;;;;4954909;28;19966;-79
2022/01/15 09:44:24;;;;;;;;;;;2.90;99.90;;;;;;4943565;28;19977;-80
2022/01/15 09:46:50;;;;;;;;;;;3.20;99.90;;;;;;4977592;28;19933;-80
2022/01/15 09:49:17;;;;;;;;;;;3.30;99.90;;;;;;4977678;28;19925;-80
2022/01/15 09:51:43;;;;;;;;;;;3.30;99.90;;;;;;4977864;28;20001;-80
2022/01/15 09:54:09;;;;;;;;;;;3.40;99.90;;;;;;4976146;28;19998;-80
2022/01/15 09:56:34;;;;;;;;;;;3.50;99.90;;;;;;4976453;28;19914;-80
2022/01/15 09:59:02;;;;;;;;;;;3.60;99.90;;;;;;4977482;28;19914;-80
2022/01/15 10:01:28;;;;;;;;;;;3.50;99.90;;;;;;4977648;28;20353;-79
2022/01/15 10:03:55;;;;;;;;;;;3.60;99.90;;;;;;4977183;28;19910;-80
2022/01/15 10:06:21;;;;;;;;;;;3.50;99.90;;;;;;4978045;28;20033;-78
2022/01/15 10:09:06;;;;;;;;;;;3.70;99.90;;;;;;4992742;28;19941;-80
2022/01/15 10:11:45;;;;;;;;;;;3.80;99.90;;;;;;4977931;28;19914;-80
2022/01/15 10:14:30;;;;;;;;;;;3.50;99.90;;;;;;4970469;28;19917;-80
2022/01/15 10:16:57;;;;;;;;;;;3.90;99.90;;;;;;4958115;29;19918;-80
2022/01/15 10:19:25;;;;;;;;;;;4.10;99.90;;;;;;4958225;29;19910;-80
2022/01/15 10:22:04;;;;;;;;;;;3.80;99.90;;;;;;4940799;29;19945;-80
2022/01/15 10:24:30;;;;;;;;;;;3.90;99.90;;;;;;4957664;28;19961;-78
2022/01/15 10:26:55;;;;;;;;;;;4.10;99.90;;;;;;4958156;29;20378;-80
2022/01/15 10:29:21;;;;;;;;;;;3.70;99.90;;;;;;4957679;29;19921;-80
2022/01/15 10:31:46;;;;;;;;;;;3.60;99.90;;;;;;4957995;29;19911;-79
2022/01/15 10:34:24;;;;;;;;;;;3.80;99.90;;;;;;4957601;29;19911;-80
2022/01/15 10:36:50;;;;;;;;;;;3.70;99.90;;;;;;4957729;29;19910;-80
2022/01/15 10:39:17;;;;;;;;;;;3.70;99.90;;;;;;4940601;29;19917;-79
2022/01/15 10:41:43;;;;;;;;;;;3.80;99.90;;;;;;4957477;29;19915;-80
2022/01/15 10:44:28;;;;;;;;;;;4.00;99.90;;;;;;4937496;28;19961;-79
2022/01/15 10:47:20;;;;;;;;;;;4.10;99.90;;;;;;4976612;28;19910;-80
2022/01/15 10:49:45;;;;;;;;;;;4.30;99.90;;;;;;4971640;28;19929;-80
2022/01/15 10:52:11;;;;;;;;;;;4.30;99.90;;;;;;4976657;28;19910;-80
2022/01/15 10:55:03;;;;;;;;;;;3.80;99.90;;;;;;4966177;28;19922;-80
2022/01/15 10:57:33;;;;;;;;;;;4.00;99.90;;;;;;4957688;29;20377;-80
2022/01/15 11:00:07;;;;;;;;;;;4.40;99.90;;;;;;4957186;29;19918;-80
2022/01/15 11:02:32;;;;;;;;;;;4.70;99.90;;;;;;4939968;29;20419;-80
2022/01/15 11:04:58;;;;;;;;;;;4.80;99.90;;;;;;4956923;28;19914;-80
2022/01/15 11:07:24;;;;;;;;;;;4.80;99.90;;;;;;4957383;29;19949;-80
2022/01/15 11:09:53;;;;;;;;;;;4.70;99.90;;;;;;4957291;29;19914;-80
2022/01/15 11:12:24;;;;;;;;;;;4.80;99.90;;;;;;4956733;29;20008;-80
2022/01/15 11:14:49;;;;;;;;;;;4.80;99.90;;;;;;4968045;28;20320;-80
2022/01/15 11:17:15;;;;;;;;;;;5.00;99.90;;;;;;4976374;28;20001;-80
2022/01/15 11:19:43;;;;;;;;;;;4.80;99.90;;;;;;4976329;28;19914;-80
2022/01/15 11:22:09;;;;;;;;;;;5.10;99.90;;;;;;4976066;28;19933;-79
2022/01/15 11:24:35;;;;;;;;;;;5.20;99.90;;;;;;4967522;28;20390;-80
2022/01/15 11:27:00;;;;;;;;;;;5.20;99.90;;;;;;4956632;29;19918;-80
2022/01/15 11:29:26;;;;;;;;;;;5.40;99.90;;;;;;4956724;29;20360;-80
2022/01/15 11:31:56;;;;;;;;;;;5.60;99.90;;;;;;4956716;29;20407;-80
2022/01/15 11:34:27;;;;;;;;;;;5.70;99.90;;;;;;4956047;28;19910;-80
2022/01/15 11:36:53;;;;;;;;;;;5.90;99.90;;;;;;4955466;29;19911;-80
2022/01/15 11:39:32;;;;;;;;;;;6.10;99.90;;;;;;4953992;29;19917;-80
2022/01/15 11:42:00;;;;;;;;;;;5.90;99.90;;;;;;4955281;29;19915;-80
2022/01/15 11:44:28;;;;;;;;;;;6.20;99.90;;;;;;4956300;29;19965;-80
2022/01/15 11:46:56;;;;;;;;;;;6.50;99.90;;;;;;4956143;29;19910;-80
2022/01/15 11:49:36;;;;;;;;;;;6.70;99.90;;;;;;4956093;29;19920;-79
2022/01/15 11:52:05;;;;;;;;;;;6.90;99.90;;;;;;4956110;29;20016;-80
2022/01/15 11:54:31;;;;;;;;;;;6.10;99.90;;;;;;4954551;29;19922;-80
2022/01/15 11:56:59;;;;;;;;;;;6.40;99.90;;;;;;4954630;29;20010;-80
2022/01/15 11:59:24;;;;;;;;;;;6.40;99.90;;;;;;4954882;29;19918;-80
2022/01/15 12:01:51;;;;;;;;;;;6.80;99.90;;;;;;4955457;29;19911;-80
2022/01/15 12:04:25;;;;;;;;;;;8.00;99.90;;;;;;4955661;29;20430;-80
2022/01/15 12:07:04;;;;;;;;;;;11.20;99.90;;;;;;4954835;28;19911;-80
2022/01/15 12:09:33;;;;;;;;;;;11.00;99.90;;;;;;4955706;29;20000;-80
2022/01/15 12:11:59;;;;;;;;;;;9.60;99.90;;;;;;4938702;29;20286;-80
2022/01/15 12:14:43;;;;;;;;;;;8.80;99.90;;;;;;4955746;29;19917;-80
2022/01/15 12:17:24;;;;;;;;;;;8.50;99.90;;;;;;4956208;29;19914;-80
2022/01/15 12:19:50;;;;;;;;;;;8.90;99.90;;;;;;4938475;29;19911;-80
2022/01/15 12:22:34;;;;;;;;;;;9.80;99.90;;;;;;4955687;29;19910;-80
2022/01/15 12:25:04;;;;;;;;;;;10.70;99.90;;;;;;4955702;29;19949;-80
2022/01/15 12:27:30;;;;;;;;;;;9.70;99.90;;;;;;4955818;29;19910;-80
2022/01/15 12:30:27;;;;;;;;;;;8.90;99.90;;;;;;4955553;29;19954;-80
2022/01/15 12:32:53;;;;;;;;;;;8.30;99.90;;;;;;4922993;29;19933;-80
2022/01/15 12:35:23;;;;;;;;;;;8.40;99.90;;;;;;4955563;29;19911;-80
2022/01/15 12:38:05;;;;;;;;;;;9.20;99.90;;;;;;4955638;29;19910;-80
2022/01/15 12:40:31;;;;;;;;;;;10.90;99.90;;;;;;4938263;29;19911;-80
2022/01/15 12:42:57;;;;;;;;;;;10.00;99.90;;;;;;4955712;29;19947;-80
2022/01/15 12:45:24;;;;;;;;;;;9.40;99.90;;;;;;4955470;29;20018;-80
2022/01/15 12:47:49;;;;;;;;;;;9.40;99.90;;;;;;4955435;29;19918;-80
2022/01/15 12:50:15;;;;;;;;;;;9.20;99.90;;;;;;4938154;29;19914;-80
2022/01/15 12:52:41;;;;;;;;;;;10.30;99.90;;;;;;4955332;29;19911;-80
2022/01/15 12:55:07;;;;;;;;;;;11.00;99.90;;;;;;4955209;29;19922;-80
2022/01/15 12:57:51;;;;;;;;;;;11.10;99.90;;;;;;4954321;29;20390;-80
2022/01/15 13:00:24;;;;;;;;;;;10.80;99.90;;;;;;4954066;29;20363;-80
2022/01/15 13:02:54;;;;;;;;;;;10.20;99.90;;;;;;4955283;29;19910;-80
2022/01/15 13:05:19;;;;;;;;;;;9.70;99.90;;;;;;4955464;29;19910;-80
2022/01/15 13:07:45;;;;;;;;;;;9.70;99.90;;;;;;4955412;29;20010;-80
2022/01/15 13:10:23;;;;;;;;;;;10.00;99.90;;;;;;4955391;29;19977;-80
2022/01/15 13:12:49;;;;;;;;;;;10.10;99.90;;;;;;4937732;29;19910;-80
2022/01/15 13:15:21;;;;;;;;;;;10.30;99.90;;;;;;4955969;29;20382;-80
2022/01/15 13:17:46;;;;;;;;;;;10.70;99.90;;;;;;4956389;28;19910;-77
2022/01/15 13:20:32;;;;;;;;;;;10.90;99.90;;;;;;4958932;29;20017;-80
2022/01/15 13:22:58;;;;;;;;;;;11.60;99.90;;;;;;4959092;29;19942;-80
2022/01/15 13:25:25;;;;;;;;;;;11.80;99.90;;;;;;4958991;29;20328;-78
2022/01/15 13:27:51;;;;;;;;;;;13.20;99.90;;;;;;4958823;29;19933;-78
2022/01/15 13:30:21;;;;;;;;;;;14.70;98.30;;;;;;4958737;29;20388;-78
2022/01/15 13:32:54;;;;;;;;;;;14.90;95.20;;;;;;4958664;29;19911;-78
2022/01/15 13:35:23;;;;;;;;;;;13.90;96.00;;;;;;4957575;29;19922;-78
2022/01/15 13:37:49;;;;;;;;;;;12.60;98.30;;;;;;4958572;29;19920;-81
2022/01/15 13:40:25;;;;;;;;;;;12.70;99.90;;;;;;4957607;29;20398;-78
2022/01/15 13:42:51;;;;;;;;;;;14.20;97.50;;;;;;4957003;29;20310;-78
2022/01/15 13:45:16;;;;;;;;;;;15.40;94.60;;;;;;4941237;29;19917;-78
2022/01/15 13:47:43;;;;;;;;;;;14.50;94.10;;;;;;4958544;29;20020;-78
2022/01/15 13:53:07;;;;;;;;;;;12.40;99.00;;;;;;4958607;28;20423;-78
2022/01/15 13:55:33;;;;;;;;;;;13.80;97.30;;;;;;4958008;29;19930;-78
2022/01/15 13:58:08;;;;;;;;;;;15.20;94.90;;;;;;4958292;29;19910;-78
2022/01/15 14:00:34;;;;;;;;;;;16.30;92.30;;;;;;4958301;29;19917;-78
2022/01/15 14:03:06;;;;;;;;;;;15.80;91.40;;;;;;4958370;29;19911;-78
2022/01/15 14:05:32;;;;;;;;;;;15.80;91.90;;;;;;4958113;29;19911;-78
2022/01/15 14:08:07;;;;;;;;;;;16.00;90.70;;;;;;4956793;29;20330;-78
2022/01/15 14:10:33;;;;;;;;;;;16.60;90.80;;;;;;4958008;29;19922;-78
2022/01/15 14:12:59;;;;;;;;;;;16.90;89.70;;;;;;4957994;29;19910;-78
2022/01/15 14:15:31;;;;;;;;;;;17.90;87.40;;;;;;4957218;29;20037;-78
2022/01/15 14:18:00;;;;;;;;;;;17.80;85.10;;;;;;4940692;29;20350;-78
2022/01/15 14:20:51;;;;;;;;;;;15.50;88.80;;;;;;4957829;29;19910;-78
2022/01/15 14:23:28;;;;;;;;;;;14.70;92.50;;;;;;4958131;29;20437;-78
2022/01/15 14:25:53;;;;;;;;;;;13.90;92.50;;;;;;4957860;29;19917;-78
2022/01/15 14:28:23;;;;;;;;;;;12.70;95.00;;;;;;4958153;28;19910;-77
2022/01/15 14:30:54;;;;;;;;;;;11.60;97.80;;;;;;4956741;29;19918;-80
2022/01/15 14:33:20;;;;;;;;;;;11.00;99.90;;;;;;4957806;29;19910;-80
2022/01/15 14:35:46;;;;;;;;;;;10.50;99.90;;;;;;4957811;29;20381;-80
2022/01/15 14:38:15;;;;;;;;;;;9.90;99.90;;;;;;4957505;29;19918;-80
2022/01/15 14:40:40;;;;;;;;;;;9.60;99.90;;;;;;4957522;29;19911;-80
2022/01/15 14:43:06;;;;;;;;;;;9.50;99.90;;;;;;4957863;29;19982;-80
2022/01/15 14:45:32;;;;;;;;;;;9.30;99.90;;;;;;4940165;29;19911;-80
2022/01/15 14:47:57;;;;;;;;;;;9.10;99.90;;;;;;4957676;29;19910;-80
2022/01/15 14:50:23;;;;;;;;;;;9.20;99.90;;;;;;4957353;29;19921;-80
2022/01/15 14:52:49;;;;;;;;;;;8.90;99.90;;;;;;4939931;29;20252;-80
2022/01/15 14:55:15;;;;;;;;;;;8.80;99.90;;;;;;4957035;29;19954;-80
2022/01/15 14:57:41;;;;;;;;;;;8.30;99.90;;;;;;4957353;29;19961;-80
2022/01/15 15:00:08;;;;;;;;;;;8.20;99.90;;;;;;4955866;29;19910;-80
2022/01/15 15:02:36;;;;;;;;;;;7.70;99.90;;;;;;4955677;29;19910;-79
2022/01/15 15:05:02;;;;;;;;;;;7.50;99.90;;;;;;4956963;29;19915;-80